createdAt,value
2018-01-17T00:01:01.587Z,84.50
2018-01-17T00:03:29.174Z,84.70
2018-01-17T00:05:56.788Z,84.90
2018-01-17T00:08:24.374Z,85.00
2018-01-17T00:10:51.965Z,85.00
2018-01-17T00:13:19.591Z,85.20
2018-01-17T00:15:47.159Z,85.10
2018-01-17T00:18:14.764Z,85.70
2018-01-17T00:20:43.100Z,85.90
2018-01-17T00:23:10.686Z,85.80
2018-01-17T00:25:38.279Z,86.40
2018-01-17T00:28:05.922Z,86.50
2018-01-17T00:30:34.268Z,86.90
2018-01-17T00:33:01.897Z,86.80
2018-01-17T00:35:29.530Z,87.40
2018-01-17T00:37:57.895Z,87.70
2018-01-17T00:40:26.211Z,88.30
2018-01-17T00:42:53.812Z,88.20
2018-01-17T00:45:21.442Z,87.10
2018-01-17T00:47:49.089Z,86.50
2018-01-17T00:50:16.658Z,87.00
2018-01-17T00:52:44.250Z,87.10
2018-01-17T00:55:11.854Z,87.40
2018-01-17T00:57:39.496Z,87.90
2018-01-17T01:00:07.147Z,88.70
2018-01-17T01:02:35.476Z,88.70
2018-01-17T01:05:03.053Z,88.50
2018-01-17T01:07:30.624Z,88.80
2018-01-17T01:09:58.211Z,88.90
2018-01-17T01:12:26.581Z,89.10
2018-01-17T01:14:54.936Z,89.70
2018-01-17T01:17:22.550Z,88.90
2018-01-17T01:19:50.142Z,88.60
2018-01-17T01:22:17.738Z,88.30
2018-01-17T01:24:46.118Z,88.30
2018-01-17T01:27:14.483Z,88.80
2018-01-17T01:29:42.059Z,88.10
2018-01-17T01:32:09.677Z,88.30
2018-01-17T01:34:37.254Z,87.50
2018-01-17T01:37:04.839Z,87.90
2018-01-17T01:39:33.226Z,88.20
2018-01-17T01:42:01.578Z,87.80
2018-01-17T01:44:29.186Z,87.80
2018-01-17T01:46:56.732Z,88.00
2018-01-17T01:49:24.402Z,87.70
2018-01-17T01:51:52.734Z,85.70
2018-01-17T01:54:20.359Z,85.60
2018-01-17T01:56:47.962Z,85.20
2018-01-17T01:59:15.554Z,85.00
2018-01-17T02:01:43.163Z,85.00
2018-01-17T02:04:10.771Z,85.40
2018-01-17T02:06:39.097Z,83.90
2018-01-17T02:09:06.683Z,83.80
2018-01-17T02:11:34.304Z,83.90
2018-01-17T02:14:01.889Z,83.50
2018-01-17T02:16:29.453Z,83.80
2018-01-17T02:18:57.063Z,83.70
2018-01-17T02:21:24.620Z,83.60
2018-01-17T02:23:52.244Z,83.70
2018-01-17T02:26:19.861Z,83.40
2018-01-17T02:28:47.430Z,83.60
2018-01-17T02:31:21.042Z,83.70
2018-01-17T02:33:48.642Z,83.30
2018-01-17T02:36:16.946Z,83.70
2018-01-17T02:38:44.558Z,83.70
2018-01-17T02:41:12.215Z,83.60
2018-01-17T02:43:39.814Z,83.70
2018-01-17T02:46:07.376Z,83.70
2018-01-17T02:48:34.971Z,83.60
2018-01-17T02:51:02.558Z,82.90
2018-01-17T02:53:30.126Z,82.90
2018-01-17T02:55:57.753Z,83.10
2018-01-17T02:58:25.313Z,82.50
2018-01-17T03:00:52.945Z,83.00
2018-01-17T03:03:20.508Z,82.70
2018-01-17T03:05:48.133Z,82.90
2018-01-17T03:08:15.742Z,82.80
2018-01-17T03:10:43.345Z,82.60
2018-01-17T03:13:10.930Z,82.70
2018-01-17T03:15:38.541Z,82.60
2018-01-17T03:18:06.170Z,82.80
2018-01-17T03:20:33.750Z,82.90
2018-01-17T03:23:01.310Z,82.50
2018-01-17T03:25:28.882Z,82.10
2018-01-17T03:27:56.494Z,82.50
2018-01-17T03:30:36.323Z,83.40
2018-01-17T03:33:04.672Z,83.10
2018-01-17T03:35:32.231Z,83.00
2018-01-17T03:37:59.851Z,83.10
2018-01-17T03:40:27.429Z,83.40
2018-01-17T03:42:55.056Z,83.70
2018-01-17T03:45:22.675Z,83.50
2018-01-17T03:47:50.270Z,83.70
2018-01-17T03:50:18.578Z,84.70
2018-01-17T03:52:46.154Z,84.70
2018-01-17T03:55:13.748Z,83.90
2018-01-17T03:57:41.360Z,83.60
2018-01-17T04:00:09.016Z,83.50
2018-01-17T04:02:36.618Z,83.00
2018-01-17T04:05:04.202Z,82.50
2018-01-17T04:07:32.543Z,82.50
2018-01-17T04:10:00.160Z,82.50
2018-01-17T04:12:27.774Z,82.30
2018-01-17T04:14:55.380Z,82.80
2018-01-17T04:17:23.006Z,83.10
2018-01-17T04:19:50.595Z,83.50
2018-01-17T04:22:18.173Z,83.50
2018-01-17T04:24:45.747Z,83.10
2018-01-17T04:27:13.331Z,83.30
2018-01-17T04:29:40.939Z,83.20
2018-01-17T04:32:08.582Z,83.20
2018-01-17T04:34:36.924Z,83.20
2018-01-17T04:37:04.541Z,83.20
2018-01-17T04:39:32.131Z,83.70
2018-01-17T04:42:00.474Z,83.40
2018-01-17T04:44:28.107Z,83.50
2018-01-17T04:46:55.702Z,83.60
2018-01-17T04:49:23.292Z,83.90
2018-01-17T04:51:50.924Z,81.60
2018-01-17T04:54:18.535Z,83.40
2018-01-17T04:56:46.114Z,84.30
2018-01-17T04:59:14.468Z,87.20
2018-01-17T05:01:42.064Z,87.00
2018-01-17T05:04:10.432Z,86.70
2018-01-17T05:06:38.800Z,86.40
2018-01-17T05:09:06.439Z,86.40
2018-01-17T05:11:34.006Z,85.50
2018-01-17T05:14:01.626Z,85.40
2018-01-17T05:16:29.206Z,86.40
2018-01-17T05:18:56.807Z,87.30
2018-01-17T05:21:24.346Z,87.50
2018-01-17T05:23:51.942Z,87.00
2018-01-17T05:26:20.302Z,84.90
2018-01-17T05:28:47.906Z,84.90
2018-01-17T05:31:15.504Z,84.90
2018-01-17T05:33:43.145Z,84.90
2018-01-17T05:36:10.690Z,84.90
2018-01-17T05:38:38.318Z,85.30
2018-01-17T05:41:06.655Z,86.10
2018-01-17T05:43:34.259Z,86.00
2018-01-17T05:46:02.638Z,86.20
2018-01-17T05:48:30.198Z,86.20
2018-01-17T05:50:58.579Z,85.50
2018-01-17T05:53:27.019Z,85.30
2018-01-17T05:55:54.644Z,85.30
2018-01-17T05:58:22.203Z,85.50
2018-01-17T06:00:49.783Z,85.30
2018-01-17T06:03:17.347Z,85.60
2018-01-17T06:05:44.970Z,84.50
2018-01-17T06:08:12.579Z,84.90
2018-01-17T06:10:40.197Z,85.40
2018-01-17T06:13:07.758Z,85.20
2018-01-17T06:15:35.361Z,84.90
2018-01-17T06:18:02.930Z,84.10
2018-01-17T06:20:30.491Z,83.80
2018-01-17T06:22:58.114Z,83.80
2018-01-17T06:25:25.739Z,83.10
2018-01-17T06:27:53.335Z,83.60
2018-01-17T06:30:20.927Z,83.80
2018-01-17T06:32:48.561Z,83.70
2018-01-17T06:35:16.896Z,84.80
2018-01-17T06:37:44.546Z,84.70
2018-01-17T06:40:12.878Z,85.00
2018-01-17T06:42:40.494Z,85.00
2018-01-17T06:45:08.851Z,85.40
2018-01-17T06:47:36.445Z,85.40
2018-01-17T06:50:04.047Z,85.60
2018-01-17T06:52:31.644Z,85.60
2018-01-17T06:55:00.061Z,85.30
2018-01-17T06:57:27.681Z,85.20
2018-01-17T06:59:56.103Z,85.60
2018-01-17T07:02:23.726Z,85.50
2018-01-17T07:04:52.095Z,86.30
2018-01-17T07:07:19.678Z,86.20
2018-01-17T07:09:47.287Z,86.90
2018-01-17T07:12:14.911Z,86.50
2018-01-17T07:14:42.511Z,86.20
2018-01-17T07:17:10.131Z,85.20
2018-01-17T07:19:37.704Z,84.30
2018-01-17T07:22:05.268Z,84.70
2018-01-17T07:24:33.662Z,83.00
2018-01-17T07:27:01.264Z,82.90
2018-01-17T07:29:29.648Z,81.50
2018-01-17T07:31:57.968Z,81.20
2018-01-17T07:34:25.522Z,81.20
2018-01-17T07:36:53.111Z,81.40
2018-01-17T07:39:20.719Z,81.50
2018-01-17T07:41:48.274Z,80.60
2018-01-17T07:44:15.896Z,81.10
2018-01-17T07:46:43.439Z,77.80
2018-01-17T07:49:11.006Z,77.00
2018-01-17T07:51:38.602Z,76.10
2018-01-17T07:54:06.958Z,74.00
2018-01-17T07:56:34.586Z,74.00
2018-01-17T07:59:02.181Z,72.70
2018-01-17T08:01:29.732Z,71.50
2018-01-17T08:03:57.354Z,71.00
2018-01-17T08:06:24.954Z,70.70
2018-01-17T08:08:52.507Z,70.90
2018-01-17T08:11:20.101Z,71.90
2018-01-17T08:13:47.674Z,72.00
2018-01-17T08:16:15.269Z,72.10
2018-01-17T08:18:42.835Z,71.40
2018-01-17T08:21:10.412Z,72.50
2018-01-17T08:23:38.042Z,71.90
2018-01-17T08:26:05.682Z,72.50
2018-01-17T08:28:34.050Z,72.60
2018-01-17T08:31:01.650Z,72.50
2018-01-17T08:33:29.223Z,73.40
2018-01-17T08:35:56.830Z,72.80
2018-01-17T08:38:24.409Z,72.90
2018-01-17T08:40:51.948Z,71.90
2018-01-17T08:43:19.571Z,71.80
2018-01-17T08:45:47.176Z,70.60
2018-01-17T08:48:14.763Z,70.80
2018-01-17T08:50:42.316Z,70.60
2018-01-17T08:53:09.900Z,70.30
2018-01-17T08:55:37.530Z,69.50
2018-01-17T08:58:05.142Z,69.50
2018-01-17T09:00:32.723Z,70.00
2018-01-17T09:03:00.320Z,66.70
2018-01-17T09:05:27.920Z,62.90
2018-01-17T09:07:55.510Z,59.30
2018-01-17T09:10:23.107Z,62.10
2018-01-17T09:12:50.748Z,63.20
2018-01-17T09:15:19.069Z,63.20
2018-01-17T09:17:46.648Z,62.40
2018-01-17T09:20:14.996Z,62.80
2018-01-17T09:22:42.586Z,62.60
2018-01-17T09:25:10.962Z,61.00
2018-01-17T09:27:39.292Z,62.60
2018-01-17T09:30:06.886Z,62.60
2018-01-17T09:32:34.494Z,63.20
2018-01-17T09:35:02.089Z,65.00
2018-01-17T09:37:29.714Z,66.90
2018-01-17T09:39:57.334Z,68.90
2018-01-17T09:42:24.930Z,69.80
2018-01-17T09:44:52.506Z,72.40
2018-01-17T09:47:20.114Z,76.00
2018-01-17T09:49:48.486Z,82.10
2018-01-17T09:52:16.090Z,81.90
2018-01-17T09:54:43.679Z,85.10
2018-01-17T09:57:11.256Z,86.20
2018-01-17T09:59:38.862Z,87.70
2018-01-17T10:02:06.430Z,87.50
2018-01-17T10:04:34.017Z,87.30
2018-01-17T10:07:01.606Z,87.10
2018-01-17T10:09:29.184Z,87.10
2018-01-17T10:11:57.546Z,86.90
2018-01-17T10:14:25.134Z,86.90
2018-01-17T10:16:52.749Z,85.20
2018-01-17T10:19:20.296Z,86.00
2018-01-17T10:21:47.918Z,84.40
2018-01-17T10:24:15.486Z,84.10
2018-01-17T10:26:43.099Z,83.20
2018-01-17T10:29:10.695Z,83.50
2018-01-17T10:31:38.286Z,83.80
2018-01-17T10:34:05.883Z,84.70
2018-01-17T10:36:33.445Z,85.10
2018-01-17T10:39:01.023Z,85.00
2018-01-17T10:41:29.407Z,82.40
2018-01-17T10:43:57.002Z,82.40
2018-01-17T10:46:24.588Z,80.90
2018-01-17T10:48:52.184Z,79.50
2018-01-17T10:51:20.567Z,79.20
2018-01-17T10:53:48.930Z,78.50
2018-01-17T10:56:17.279Z,78.30
2018-01-17T10:58:44.874Z,78.30
2018-01-17T11:01:13.211Z,78.40
2018-01-17T11:03:40.813Z,78.40
2018-01-17T11:06:08.403Z,77.10
2018-01-17T11:08:36.041Z,76.60
2018-01-17T11:11:03.612Z,76.20
2018-01-17T11:13:31.198Z,75.90
2018-01-17T11:15:58.785Z,76.10
2018-01-17T11:18:26.396Z,75.40
2018-01-17T11:20:54.220Z,74.80
2018-01-17T11:23:21.837Z,74.50
2018-01-17T11:25:49.426Z,73.50
2018-01-17T11:28:16.998Z,73.20
2018-01-17T11:30:44.611Z,74.30
2018-01-17T11:33:12.184Z,71.60
2018-01-17T11:35:39.786Z,69.80
2018-01-17T11:38:08.159Z,68.50
2018-01-17T11:40:35.740Z,68.60
2018-01-17T11:43:04.066Z,68.00
2018-01-17T11:45:31.682Z,68.10
2018-01-17T11:47:59.271Z,68.20
2018-01-17T11:50:26.888Z,67.20
2018-01-17T11:52:55.290Z,68.10
2018-01-17T11:55:22.873Z,68.00
2018-01-17T11:57:50.501Z,69.60
2018-01-17T12:00:18.103Z,68.70
2018-01-17T12:02:45.764Z,68.90
2018-01-17T12:05:17.550Z,69.30
2018-01-17T12:07:45.127Z,68.90
2018-01-17T12:10:13.466Z,66.30
2018-01-17T12:12:41.118Z,66.30
2018-01-17T12:15:08.746Z,67.40
2018-01-17T12:17:36.337Z,66.00
2018-01-17T12:20:03.968Z,64.90
2018-01-17T12:22:31.547Z,65.30
2018-01-17T12:24:59.170Z,63.80
2018-01-17T12:27:26.721Z,65.20
2018-01-17T12:29:54.316Z,65.70
2018-01-17T12:32:21.907Z,66.10
2018-01-17T12:34:49.523Z,65.40
2018-01-17T12:37:17.876Z,65.90
2018-01-17T12:39:45.498Z,66.10
2018-01-17T12:42:13.099Z,66.00
2018-01-17T12:44:40.712Z,66.10
2018-01-17T12:47:08.295Z,65.50
2018-01-17T12:49:35.890Z,66.80
2018-01-17T12:52:04.266Z,66.40
2018-01-17T12:54:32.626Z,66.70
2018-01-17T12:57:00.247Z,66.60
2018-01-17T12:59:27.826Z,66.80
2018-01-17T13:01:55.450Z,67.70
2018-01-17T13:04:23.028Z,67.30
2018-01-17T13:06:51.390Z,68.20
2018-01-17T13:09:18.967Z,68.00
2018-01-17T13:11:46.556Z,69.30
2018-01-17T13:14:14.200Z,68.10
2018-01-17T13:16:41.787Z,68.30
2018-01-17T13:19:09.354Z,67.10
2018-01-17T13:21:36.962Z,67.40
2018-01-17T13:24:04.554Z,66.90
2018-01-17T13:26:32.174Z,67.10
2018-01-17T13:28:59.762Z,66.30
2018-01-17T13:31:27.350Z,66.40
2018-01-17T13:33:54.954Z,66.10
2018-01-17T13:36:22.526Z,66.70
2018-01-17T13:38:50.122Z,65.30
2018-01-17T13:41:17.714Z,65.90
2018-01-17T13:43:45.373Z,64.70
2018-01-17T13:46:13.704Z,65.80
2018-01-17T13:48:41.322Z,65.80
2018-01-17T13:51:08.888Z,66.00
2018-01-17T13:53:36.498Z,67.00
2018-01-17T13:56:04.083Z,67.60
2018-01-17T13:58:32.461Z,69.40
2018-01-17T14:01:00.038Z,69.30
2018-01-17T14:03:27.627Z,70.00
2018-01-17T14:05:55.237Z,68.10
2018-01-17T14:08:23.594Z,67.60
2018-01-17T14:10:51.181Z,67.60
2018-01-17T14:13:19.580Z,67.60
2018-01-17T14:15:47.207Z,67.70
2018-01-17T14:18:14.801Z,69.40
2018-01-17T14:20:42.569Z,69.10
2018-01-17T14:23:10.332Z,68.10
2018-01-17T14:25:37.939Z,67.10
2018-01-17T14:28:05.522Z,67.80
2018-01-17T14:30:33.860Z,68.30
2018-01-17T14:33:01.491Z,68.30
2018-01-17T14:35:29.075Z,68.50
2018-01-17T14:37:56.694Z,67.50
2018-01-17T14:40:25.077Z,67.30
2018-01-17T14:42:58.291Z,67.20
2018-01-17T14:45:25.889Z,67.80
2018-01-17T14:47:56.763Z,68.00
2018-01-17T14:50:25.115Z,68.70
2018-01-17T14:52:52.710Z,68.60
2018-01-17T14:55:20.335Z,69.70
2018-01-17T14:57:47.945Z,69.40
2018-01-17T15:00:15.586Z,70.30
2018-01-17T15:02:43.178Z,71.20
2018-01-17T15:05:10.756Z,72.00
2018-01-17T15:07:38.342Z,72.60
2018-01-17T15:10:06.996Z,73.60
2018-01-17T15:12:34.624Z,73.40
2018-01-17T15:15:02.291Z,74.40
2018-01-17T15:17:29.876Z,74.20
2018-01-17T15:19:57.528Z,75.10
2018-01-17T15:22:31.499Z,75.80
2018-01-17T15:24:59.879Z,75.80
2018-01-17T15:27:28.260Z,76.90
2018-01-17T15:29:55.888Z,76.80
2018-01-17T15:32:23.479Z,76.70
2018-01-17T15:34:51.091Z,76.70
2018-01-17T15:37:25.588Z,76.90
2018-01-17T15:39:53.168Z,76.40
2018-01-17T15:42:20.763Z,76.70
2018-01-17T15:44:49.180Z,76.20
2018-01-17T15:47:16.794Z,76.20
2018-01-17T15:49:44.408Z,75.90
2018-01-17T15:52:12.014Z,75.90
2018-01-17T15:54:39.612Z,75.40
2018-01-17T15:57:07.214Z,74.50
2018-01-17T15:59:34.878Z,75.00
2018-01-17T16:02:02.500Z,75.30
2018-01-17T16:04:30.122Z,75.40
2018-01-17T16:07:01.262Z,75.30
2018-01-17T16:09:28.884Z,75.80
2018-01-17T16:11:56.465Z,74.50
2018-01-17T16:14:24.043Z,74.20
2018-01-17T16:16:51.652Z,74.30
2018-01-17T16:19:19.278Z,75.20
2018-01-17T16:21:46.891Z,75.50
2018-01-17T16:24:14.526Z,75.20
2018-01-17T16:26:42.125Z,75.50
2018-01-17T16:29:09.772Z,75.50
2018-01-17T16:31:37.392Z,75.40
2018-01-17T16:34:04.983Z,76.00
2018-01-17T16:36:32.546Z,76.20
2018-01-17T16:39:00.171Z,76.60
2018-01-17T16:41:29.693Z,76.60
2018-01-17T16:44:03.305Z,76.50
2018-01-17T16:49:37.968Z,76.80
2018-01-17T16:52:05.583Z,76.70
2018-01-17T16:54:33.979Z,76.40
2018-01-17T16:57:01.623Z,76.40
2018-01-17T16:59:32.632Z,76.40
2018-01-17T17:02:02.270Z,75.90
2018-01-17T17:04:29.942Z,75.90
2018-01-17T17:06:57.537Z,75.80
2018-01-17T17:09:28.519Z,75.50
2018-01-17T17:12:00.162Z,76.00
2018-01-17T17:14:27.754Z,76.60
2018-01-17T17:16:55.659Z,76.20
2018-01-17T17:19:23.247Z,76.20
2018-01-17T17:21:50.880Z,76.00
2018-01-17T17:24:18.478Z,76.00
2018-01-17T17:26:46.080Z,76.10
2018-01-17T17:29:13.662Z,76.40
2018-01-17T17:31:41.334Z,76.50
2018-01-17T17:34:08.978Z,77.10
2018-01-17T17:36:36.586Z,77.30
2018-01-17T17:39:04.974Z,77.20
2018-01-17T17:41:33.784Z,77.60
2018-01-17T17:44:01.391Z,77.50
2018-01-17T17:46:29.001Z,77.00
2018-01-17T17:48:56.606Z,76.90
2018-01-17T17:51:24.245Z,76.50
2018-01-17T17:53:51.862Z,75.90
2018-01-17T17:56:20.256Z,75.10
2018-01-17T17:58:48.828Z,75.10
2018-01-17T18:01:16.456Z,74.40
2018-01-17T18:03:44.061Z,74.00
2018-01-17T18:06:11.735Z,73.90
2018-01-17T18:08:39.344Z,73.90
2018-01-17T18:11:07.016Z,73.20
2018-01-17T18:13:34.591Z,73.40
2018-01-17T18:16:03.041Z,72.60
2018-01-17T18:18:42.111Z,72.50
2018-01-17T18:21:09.715Z,73.00
2018-01-17T18:23:37.291Z,73.50
2018-01-17T18:26:05.025Z,74.90
2018-01-17T18:28:32.629Z,76.30
2018-01-17T18:31:01.069Z,76.70
2018-01-17T18:33:28.729Z,76.70
2018-01-17T18:35:57.265Z,77.20
2018-01-17T18:38:24.908Z,77.30
2018-01-17T18:40:53.087Z,76.90
2018-01-17T18:43:20.719Z,77.00
2018-01-17T18:45:48.339Z,76.90
2018-01-17T18:48:16.007Z,76.30
2018-01-17T18:50:43.664Z,76.50
2018-01-17T18:53:11.307Z,76.10
2018-01-17T18:55:38.970Z,75.80
2018-01-17T18:58:07.356Z,77.90
2018-01-17T19:00:34.977Z,77.90
2018-01-17T19:03:02.593Z,80.20
2018-01-17T19:05:30.259Z,81.60
2018-01-17T19:07:57.897Z,83.00
2018-01-17T19:10:26.255Z,85.20
2018-01-17T19:12:54.649Z,86.00
2018-01-17T19:15:22.224Z,85.90
2018-01-17T19:17:50.095Z,86.40
2018-01-17T19:20:17.697Z,87.00
2018-01-17T19:22:45.329Z,87.50
2018-01-17T19:25:12.944Z,87.60
2018-01-17T19:27:40.580Z,87.50
2018-01-17T19:30:08.191Z,87.60
2018-01-17T19:32:35.804Z,87.60
2018-01-17T19:35:03.455Z,87.60
2018-01-17T19:37:31.266Z,87.30
2018-01-17T19:39:58.892Z,87.30
2018-01-17T19:42:26.553Z,87.10
2018-01-17T19:44:54.173Z,87.40
2018-01-17T19:47:21.814Z,87.30
2018-01-17T19:49:49.435Z,87.30
2018-01-17T19:52:17.118Z,87.20
2018-01-17T19:54:44.734Z,87.60
2018-01-17T19:57:12.359Z,87.40
2018-01-17T19:59:40.000Z,87.30
2018-01-17T20:02:11.153Z,87.10
2018-01-17T20:04:38.776Z,86.90
2018-01-17T20:07:06.389Z,86.60
2018-01-17T20:09:33.986Z,86.50
2018-01-17T20:12:01.611Z,86.20
2018-01-17T20:14:29.232Z,85.90
2018-01-17T20:16:56.836Z,84.70
2018-01-17T20:19:24.503Z,83.90
2018-01-17T20:21:54.111Z,84.00
2018-01-17T20:24:21.793Z,83.00
2018-01-17T20:26:49.424Z,83.00
2018-01-17T20:29:17.028Z,82.40
2018-01-17T20:31:44.645Z,82.00
2018-01-17T20:34:12.261Z,82.20
2018-01-17T20:36:43.443Z,82.20
2018-01-17T20:39:11.809Z,82.60
2018-01-17T20:41:39.460Z,82.50
2018-01-17T20:44:08.083Z,82.50
2018-01-17T20:46:35.694Z,82.60
2018-01-17T20:49:03.277Z,82.60
2018-01-17T20:51:30.888Z,82.60
2018-01-17T20:54:08.626Z,82.60
2018-01-17T20:56:36.262Z,82.50
2018-01-17T20:59:03.918Z,82.20
2018-01-17T21:01:31.514Z,82.30
2018-01-17T21:03:59.927Z,81.90
2018-01-17T21:06:27.558Z,81.80
2018-01-17T21:08:55.195Z,82.20
2018-01-17T21:11:22.811Z,81.70
2018-01-17T21:13:50.452Z,81.60
2018-01-17T21:16:18.067Z,81.40
2018-01-17T21:18:45.647Z,81.20
2018-01-17T21:21:13.262Z,81.30
2018-01-17T21:23:41.666Z,81.30
2018-01-17T21:26:09.260Z,81.30
2018-01-17T21:28:36.943Z,81.60
2018-01-17T21:31:04.573Z,81.30
2018-01-17T21:33:32.979Z,80.60
2018-01-17T21:36:00.607Z,80.60
2018-01-17T21:38:28.216Z,80.10
2018-01-17T21:40:55.861Z,79.60
2018-01-17T21:43:29.095Z,80.00
2018-01-17T21:45:56.747Z,79.60
2018-01-17T21:48:24.367Z,79.10
2018-01-17T21:50:51.983Z,79.30
2018-01-17T21:53:19.587Z,79.00
2018-01-17T21:55:47.988Z,78.90
2018-01-17T21:58:15.597Z,78.20
2018-01-17T22:00:43.249Z,78.20
2018-01-17T22:03:10.850Z,78.40
2018-01-17T22:05:38.505Z,78.60
2018-01-17T22:08:06.135Z,77.70
2018-01-17T22:10:33.794Z,77.00
2018-01-17T22:13:01.442Z,77.10
2018-01-17T22:15:29.058Z,77.30
2018-01-17T22:17:56.666Z,76.90
2018-01-17T22:20:24.267Z,77.00
2018-01-17T22:22:52.720Z,77.10
2018-01-17T22:25:20.316Z,77.00
2018-01-17T22:27:47.933Z,76.80
2018-01-17T22:30:15.520Z,77.50
2018-01-17T22:32:43.944Z,78.00
2018-01-17T22:35:11.538Z,77.90
2018-01-17T22:37:39.212Z,78.10
2018-01-17T22:40:06.808Z,78.10
2018-01-17T22:42:34.419Z,78.50
2018-01-17T22:45:02.075Z,78.10
2018-01-17T22:47:29.661Z,77.30
2018-01-17T22:49:57.242Z,77.20
2018-01-17T22:52:24.848Z,76.70
2018-01-17T22:54:52.439Z,76.80
2018-01-17T22:57:22.025Z,77.20
2018-01-17T22:59:49.649Z,77.20
2018-01-17T23:02:24.299Z,76.70
2018-01-17T23:04:51.912Z,76.60
2018-01-17T23:07:19.594Z,76.80
2018-01-17T23:09:47.205Z,76.50
2018-01-17T23:12:15.489Z,76.10
2018-01-17T23:14:43.135Z,76.00
2018-01-17T23:17:10.733Z,75.60
2018-01-17T23:19:38.373Z,75.60
2018-01-17T23:22:06.853Z,75.70
2018-01-17T23:24:34.490Z,75.60
2018-01-17T23:27:02.081Z,75.30
2018-01-17T23:29:29.758Z,74.80
2018-01-17T23:31:57.364Z,74.10
2018-01-17T23:34:25.011Z,74.50
2018-01-17T23:36:52.620Z,74.00
2018-01-17T23:39:20.184Z,74.60
2018-01-17T23:41:47.771Z,74.20
2018-01-17T23:44:15.376Z,75.30
2018-01-17T23:46:43.000Z,75.90
2018-01-17T23:49:11.357Z,78.10
2018-01-17T23:51:38.923Z,78.10
2018-01-17T23:54:07.302Z,80.90
2018-01-17T23:56:35.740Z,81.70
2018-01-17T23:59:03.380Z,81.70
